createdAt,value
2023-03-05T00:02:41.507Z,11.57
2023-03-05T00:05:28.504Z,13.03
2023-03-05T00:08:15.808Z,12.05
2023-03-05T00:11:08.992Z,14.70
2023-03-05T00:13:56.619Z,11.40
2023-03-05T00:16:43.869Z,11.22
2023-03-05T00:19:31.324Z,14.70
2023-03-05T00:22:18.444Z,13.90
2023-03-05T00:25:06.458Z,13.08
2023-03-05T00:27:54.048Z,23.75
2023-03-05T00:30:41.155Z,14.25
2023-03-05T00:33:28.618Z,15.28
2023-03-05T00:36:15.858Z,13.05
2023-03-05T00:39:03.065Z,12.90
2023-03-05T00:41:50.662Z,11.93
2023-03-05T00:44:37.705Z,11.88
2023-03-05T00:47:24.726Z,12.85
2023-03-05T00:50:12.659Z,12.80
2023-03-05T00:53:00.068Z,12.28
2023-03-05T00:55:47.061Z,12.55
2023-03-05T00:58:34.388Z,10.72
2023-03-05T01:01:22.073Z,10.63
2023-03-05T01:04:09.615Z,10.63
2023-03-05T01:06:56.994Z,7.70
2023-03-05T01:09:44.105Z,9.03
2023-03-05T01:12:31.640Z,9.60
2023-03-05T01:15:19.064Z,9.00
2023-03-05T01:18:06.262Z,13.35
2023-03-05T01:20:54.218Z,7.75
2023-03-05T01:23:49.234Z,9.98
2023-03-05T01:26:33.042Z,10.32
2023-03-05T01:29:20.105Z,13.03
2023-03-05T01:32:07.997Z,13.48
2023-03-05T01:34:55.049Z,8.35
2023-03-05T01:37:42.273Z,16.87
2023-03-05T01:40:31.276Z,11.85
2023-03-05T01:43:24.602Z,11.38
2023-03-05T01:46:36.842Z,11.43
2023-03-05T01:49:29.490Z,12.73
2023-03-05T01:52:20.279Z,10.13
2023-03-05T01:55:10.509Z,12.37
2023-03-05T01:58:03.362Z,12.03
2023-03-05T02:00:53.657Z,12.05
2023-03-05T02:03:42.365Z,19.10
2023-03-05T02:06:29.602Z,8.95
2023-03-05T02:09:17.123Z,9.08
2023-03-05T02:12:04.203Z,12.95
2023-03-05T02:14:55.315Z,10.90
2023-03-05T02:17:42.806Z,13.08
2023-03-05T02:20:33.166Z,11.85
2023-03-05T02:23:22.405Z,13.68
2023-03-05T02:26:12.544Z,13.20
2023-03-05T02:29:02.328Z,11.90
2023-03-05T02:31:49.648Z,13.15
2023-03-05T02:34:37.579Z,12.28
2023-03-05T02:37:24.551Z,14.70
2023-03-05T02:40:12.763Z,11.43
2023-03-05T02:42:59.767Z,9.75
2023-03-05T02:45:47.026Z,14.28
2023-03-05T02:48:34.570Z,9.00
2023-03-05T02:51:21.648Z,14.65
2023-03-05T02:54:09.097Z,9.73
2023-03-05T02:56:56.453Z,11.38
2023-03-05T02:59:43.822Z,9.30
2023-03-05T03:02:31.007Z,17.35
2023-03-05T03:05:18.693Z,12.58
2023-03-05T03:08:06.270Z,15.03
2023-03-05T03:10:53.470Z,10.40
2023-03-05T03:13:41.282Z,15.53
2023-03-05T03:16:28.562Z,13.48
2023-03-05T03:19:19.698Z,15.32
2023-03-05T03:22:08.236Z,16.85
2023-03-05T03:24:56.156Z,13.60
2023-03-05T03:27:43.597Z,17.32
2023-03-05T03:30:30.823Z,18.02
2023-03-05T03:33:18.346Z,13.50
2023-03-05T03:36:06.430Z,14.98
2023-03-05T03:38:54.014Z,15.78
2023-03-05T03:41:46.453Z,13.70
2023-03-05T03:44:33.436Z,13.60
2023-03-05T03:47:20.832Z,16.82
2023-03-05T03:50:08.624Z,12.93
2023-03-05T03:52:55.858Z,9.48
2023-03-05T03:55:45.560Z,11.38
2023-03-05T03:58:32.662Z,10.45
2023-03-05T04:01:21.296Z,11.83
2023-03-05T04:04:09.388Z,12.55
2023-03-05T04:06:56.360Z,12.23
2023-03-05T04:09:43.655Z,10.78
2023-03-05T04:12:30.944Z,8.10
2023-03-05T04:15:18.450Z,8.43
2023-03-05T04:18:05.974Z,5.67
2023-03-05T04:20:53.364Z,8.73
2023-03-05T04:23:41.161Z,8.83
2023-03-05T04:26:28.202Z,6.25
2023-03-05T04:29:15.525Z,12.03
2023-03-05T04:32:03.313Z,7.40
2023-03-05T04:34:50.345Z,8.98
2023-03-05T04:37:37.990Z,11.60
2023-03-05T04:40:25.246Z,13.38
2023-03-05T04:43:12.948Z,7.97
2023-03-05T04:46:00.116Z,5.35
2023-03-05T04:48:47.176Z,8.85
2023-03-05T04:51:34.833Z,5.47
2023-03-05T04:54:22.235Z,3.15
2023-03-05T04:57:09.809Z,5.80
2023-03-05T04:59:57.223Z,2.80
2023-03-05T05:02:46.404Z,4.03
2023-03-05T05:05:56.490Z,4.83
2023-03-05T05:08:44.107Z,2.83
2023-03-05T05:11:31.602Z,3.58
2023-03-05T05:14:19.464Z,5.75
2023-03-05T05:17:06.785Z,6.95
2023-03-05T05:19:54.602Z,4.97
2023-03-05T05:22:42.629Z,2.62
2023-03-05T05:25:30.129Z,4.83
2023-03-05T05:28:17.641Z,5.65
2023-03-05T05:31:10.558Z,5.33
2023-03-05T05:33:57.657Z,10.82
2023-03-05T05:36:45.172Z,4.65
2023-03-05T05:39:32.392Z,5.05
2023-03-05T05:42:22.967Z,7.78
2023-03-05T05:45:11.130Z,7.72
2023-03-05T05:47:58.657Z,10.95
2023-03-05T05:50:45.824Z,6.45
2023-03-05T05:53:33.321Z,4.67
2023-03-05T05:56:21.188Z,4.80
2023-03-05T05:59:09.397Z,6.05
2023-03-05T06:01:56.805Z,6.33
2023-03-05T06:04:44.000Z,6.87
2023-03-05T06:07:31.555Z,5.15
2023-03-05T06:10:19.085Z,5.00
2023-03-05T06:13:06.204Z,3.75
2023-03-05T06:15:59.091Z,4.53
2023-03-05T06:18:46.657Z,9.53
2023-03-05T06:21:34.354Z,6.03
2023-03-05T06:24:22.775Z,4.72
2023-03-05T06:27:09.792Z,4.92
2023-03-05T06:29:58.161Z,5.83
2023-03-05T06:32:45.292Z,6.90
2023-03-05T06:35:32.631Z,7.17
2023-03-05T06:38:19.966Z,4.45
2023-03-05T06:41:11.484Z,7.53
2023-03-05T06:44:02.230Z,7.00
2023-03-05T06:46:49.502Z,4.87
2023-03-05T06:49:37.784Z,6.12
2023-03-05T06:52:25.042Z,7.62
2023-03-05T06:55:12.536Z,8.95
2023-03-05T06:57:59.570Z,9.85
2023-03-05T07:00:46.656Z,7.45
2023-03-05T07:03:34.972Z,7.33
2023-03-05T07:06:23.483Z,9.95
2023-03-05T07:09:14.062Z,7.33
2023-03-05T07:12:01.096Z,10.28
2023-03-05T07:14:48.371Z,10.10
2023-03-05T07:17:35.410Z,13.13
2023-03-05T07:20:22.342Z,9.70
2023-03-05T07:23:09.411Z,11.38
2023-03-05T07:25:56.572Z,8.05
2023-03-05T07:28:44.221Z,8.00
2023-03-05T07:31:31.903Z,11.28
2023-03-05T07:34:19.190Z,9.70
2023-03-05T07:37:06.678Z,13.10
2023-03-05T07:39:53.826Z,12.07
2023-03-05T07:42:40.901Z,15.38
2023-03-05T07:45:28.031Z,11.90
2023-03-05T07:48:18.100Z,10.32
2023-03-05T07:51:10.575Z,13.83
2023-03-05T07:53:58.989Z,13.05
2023-03-05T07:56:45.945Z,11.00
2023-03-05T07:59:33.645Z,13.35
2023-03-05T08:02:21.614Z,12.15
2023-03-05T08:05:08.956Z,14.58
2023-03-05T08:07:56.259Z,12.05
2023-03-05T08:10:43.431Z,12.20
2023-03-05T08:13:30.488Z,14.98
2023-03-05T08:16:20.402Z,11.97
2023-03-05T08:19:08.484Z,13.28
2023-03-05T08:21:56.289Z,14.00
2023-03-05T08:24:43.929Z,13.83
2023-03-05T08:27:31.098Z,15.75
2023-03-05T08:30:22.255Z,13.15
2023-03-05T08:33:09.707Z,13.70
2023-03-05T08:35:57.231Z,14.25
2023-03-05T08:38:46.014Z,11.88
2023-03-05T08:41:33.091Z,13.32
2023-03-05T08:44:20.272Z,14.00
2023-03-05T08:47:07.580Z,15.93
2023-03-05T08:49:56.437Z,11.63
2023-03-05T08:52:43.984Z,15.28
2023-03-05T08:55:30.953Z,14.38
2023-03-05T08:58:18.728Z,13.72
2023-03-05T09:01:06.311Z,11.95
2023-03-05T09:03:53.455Z,14.80
2023-03-05T09:06:40.479Z,11.43
2023-03-05T09:09:29.171Z,14.45
2023-03-05T09:12:16.538Z,16.23
2023-03-05T09:15:03.788Z,15.85
2023-03-05T09:17:51.287Z,12.65
2023-03-05T09:20:38.789Z,20.92
2023-03-05T09:23:26.315Z,16.02
2023-03-05T09:26:15.562Z,15.78
2023-03-05T09:29:02.516Z,15.10
2023-03-05T09:31:51.741Z,14.80
2023-03-05T09:34:39.131Z,11.65
2023-03-05T09:37:26.354Z,13.70
2023-03-05T09:40:16.869Z,14.85
2023-03-05T09:43:12.566Z,18.73
2023-03-05T09:46:11.595Z,18.12
2023-03-05T09:49:10.672Z,16.23
2023-03-05T09:52:09.974Z,16.20
2023-03-05T09:54:58.644Z,11.65
2023-03-05T09:57:48.946Z,11.15
2023-03-05T10:00:41.871Z,11.20
2023-03-05T10:03:32.817Z,15.78
2023-03-05T10:06:25.755Z,16.25
2023-03-05T10:09:15.995Z,12.75
2023-03-05T10:12:09.428Z,13.78
2023-03-05T10:14:57.031Z,15.18
2023-03-05T10:17:58.328Z,13.32
2023-03-05T10:20:54.041Z,13.38
2023-03-05T10:23:56.239Z,15.28
2023-03-05T10:27:01.502Z,17.90
2023-03-05T10:30:03.265Z,13.58
2023-03-05T10:33:00.877Z,14.53
2023-03-05T10:35:51.081Z,13.15
2023-03-05T10:39:06.903Z,13.32
2023-03-05T10:42:15.108Z,12.93
2023-03-05T10:45:04.346Z,13.68
2023-03-05T10:48:10.557Z,15.45
2023-03-05T10:51:01.104Z,15.13
2023-03-05T10:54:00.097Z,20.85
2023-03-05T10:56:47.342Z,16.73
2023-03-05T10:59:34.652Z,17.00
2023-03-05T11:02:23.898Z,21.33
2023-03-05T11:05:30.230Z,22.22
2023-03-05T11:08:29.489Z,19.27
2023-03-05T11:11:22.310Z,18.30
2023-03-05T11:14:26.369Z,18.00
2023-03-05T11:17:32.289Z,18.07
2023-03-05T11:20:30.784Z,19.35
2023-03-05T11:23:20.451Z,15.25
2023-03-05T11:26:16.733Z,14.13
2023-03-05T11:29:06.329Z,12.30
2023-03-05T11:31:54.288Z,11.53
2023-03-05T11:34:41.657Z,16.07
2023-03-05T11:37:31.685Z,14.90
2023-03-05T11:40:24.847Z,12.13
2023-03-05T11:43:18.131Z,13.75
2023-03-05T11:46:06.348Z,12.78
2023-03-05T11:48:55.060Z,12.28
2023-03-05T11:51:47.890Z,10.35
2023-03-05T11:54:54.866Z,11.28
2023-03-05T11:58:07.709Z,8.53
2023-03-05T12:00:55.192Z,11.28
2023-03-05T12:03:42.340Z,12.03
2023-03-05T12:06:41.384Z,10.53
2023-03-05T12:09:44.108Z,11.90
2023-03-05T12:12:57.846Z,11.03
2023-03-05T12:15:47.954Z,9.63
2023-03-05T12:18:47.371Z,8.75
2023-03-05T12:21:41.263Z,12.18
2023-03-05T12:24:31.485Z,11.40
2023-03-05T12:27:34.021Z,8.53
2023-03-05T12:30:39.264Z,7.65
2023-03-05T12:33:38.544Z,6.60
2023-03-05T12:36:33.836Z,7.12
2023-03-05T12:39:50.863Z,6.92
2023-03-05T12:42:49.589Z,6.58
2023-03-05T12:45:43.623Z,5.78
2023-03-05T12:48:34.070Z,7.50
2023-03-05T12:51:36.057Z,8.70
2023-03-05T12:54:35.335Z,7.67
2023-03-05T12:57:28.680Z,6.65
2023-03-05T13:00:27.463Z,8.65
2023-03-05T13:03:20.901Z,7.55
2023-03-05T13:06:09.919Z,6.90
2023-03-05T13:09:17.483Z,4.42
2023-03-05T13:12:07.597Z,4.47
2023-03-05T13:15:09.259Z,5.53
2023-03-05T13:18:07.873Z,5.97
2023-03-05T13:21:09.202Z,4.72
2023-03-05T13:23:59.158Z,4.28
2023-03-05T13:26:46.562Z,4.28
2023-03-05T13:29:33.785Z,4.17
2023-03-05T13:32:32.113Z,3.15
2023-03-05T13:35:21.093Z,3.05
2023-03-05T13:38:11.578Z,5.83
2023-03-05T13:41:10.522Z,2.90
2023-03-05T13:44:02.843Z,2.25
2023-03-05T13:46:50.334Z,5.15
2023-03-05T13:49:37.858Z,3.58
2023-03-05T13:52:30.727Z,3.37
2023-03-05T13:55:19.289Z,4.47
2023-03-05T13:58:07.023Z,3.72
2023-03-05T14:01:06.318Z,3.58
2023-03-05T14:04:00.526Z,5.53
2023-03-05T14:06:51.182Z,3.58
2023-03-05T14:09:41.704Z,4.05
2023-03-05T14:12:37.703Z,3.65
2023-03-05T14:15:34.266Z,12.43
2023-03-05T14:18:21.580Z,2.77
2023-03-05T14:21:11.484Z,3.15
2023-03-05T14:24:00.489Z,4.50
2023-03-05T14:27:09.027Z,6.10
2023-03-05T14:29:56.188Z,2.95
2023-03-05T14:32:45.520Z,4.35
2023-03-05T14:35:34.269Z,2.62
2023-03-05T14:38:24.926Z,35.20
2023-03-05T14:41:23.998Z,5.75
2023-03-05T14:44:17.175Z,2.20
2023-03-05T14:47:04.401Z,2.85
2023-03-05T14:49:52.067Z,2.60
2023-03-05T14:52:39.368Z,4.75
2023-03-05T14:55:31.261Z,3.37
2023-03-05T14:58:25.533Z,3.75
2023-03-05T15:01:15.465Z,7.78
2023-03-05T15:04:02.854Z,5.12
2023-03-05T15:06:51.836Z,2.30
2023-03-05T15:09:38.947Z,5.67
2023-03-05T15:12:26.955Z,8.60
2023-03-05T15:15:17.213Z,5.45
2023-03-05T15:18:04.562Z,3.00
2023-03-05T15:20:53.050Z,4.12
2023-03-05T15:23:40.677Z,3.92
2023-03-05T15:26:27.955Z,4.03
2023-03-05T15:29:15.236Z,4.75
2023-03-05T15:32:03.599Z,5.65
2023-03-05T15:34:51.565Z,4.72
2023-03-05T15:37:39.357Z,3.77
2023-03-05T15:40:30.614Z,4.37
2023-03-05T15:43:18.815Z,4.10
2023-03-05T15:46:07.421Z,5.08
2023-03-05T15:48:54.452Z,7.47
2023-03-05T15:51:41.986Z,5.62
2023-03-05T15:54:29.425Z,4.85
2023-03-05T15:57:17.213Z,4.12
2023-03-05T16:00:07.223Z,4.92
2023-03-05T16:02:54.380Z,7.08
2023-03-05T16:05:41.907Z,7.80
2023-03-05T16:08:29.502Z,6.65
2023-03-05T16:11:16.976Z,8.40
2023-03-05T16:14:06.953Z,7.42
2023-03-05T16:16:56.074Z,6.20
2023-03-05T16:19:46.541Z,6.85
2023-03-05T16:22:33.862Z,7.95
2023-03-05T16:25:21.918Z,6.35
2023-03-05T16:28:10.504Z,5.45
2023-03-05T16:30:58.805Z,6.03
2023-03-05T16:33:45.988Z,7.97
2023-03-05T16:36:35.610Z,7.03
2023-03-05T16:39:23.871Z,10.58
2023-03-05T16:42:12.456Z,6.80
2023-03-05T16:44:59.626Z,8.25
2023-03-05T16:47:47.067Z,8.43
2023-03-05T16:50:34.328Z,7.15
2023-03-05T16:53:21.378Z,5.75
2023-03-05T16:56:09.984Z,5.45
2023-03-05T16:58:57.400Z,7.87
2023-03-05T17:01:44.762Z,7.17
2023-03-05T17:04:31.741Z,7.28
2023-03-05T17:07:19.222Z,6.17
2023-03-05T17:10:07.608Z,5.70
2023-03-05T17:12:54.794Z,9.13
2023-03-05T17:18:29.692Z,8.30
2023-03-05T17:21:17.694Z,5.92
2023-03-05T17:24:04.992Z,9.25
2023-03-05T17:26:52.137Z,6.28
2023-03-05T17:29:39.284Z,8.15
2023-03-05T17:32:26.641Z,7.53
2023-03-05T17:35:18.809Z,9.45
2023-03-05T17:38:10.887Z,10.68
2023-03-05T17:40:58.109Z,13.70
2023-03-05T17:43:45.240Z,13.50
2023-03-05T17:46:32.584Z,9.63
2023-03-05T17:49:19.994Z,9.78
2023-03-05T17:52:07.399Z,9.45
2023-03-05T17:54:54.675Z,11.00
2023-03-05T17:57:43.474Z,8.00
2023-03-05T18:00:31.925Z,8.78
2023-03-05T18:03:19.234Z,9.53
2023-03-05T18:06:07.060Z,8.00
2023-03-05T18:08:54.155Z,9.25
2023-03-05T18:11:41.417Z,10.70
2023-03-05T18:14:28.851Z,9.88
2023-03-05T18:17:15.994Z,9.58
2023-03-05T18:20:04.221Z,14.03
2023-03-05T18:22:51.796Z,10.00
2023-03-05T18:25:38.873Z,14.07
2023-03-05T18:28:26.533Z,10.85
2023-03-05T18:31:13.526Z,12.55
2023-03-05T18:34:00.660Z,15.03
2023-03-05T18:36:48.226Z,17.80
2023-03-05T18:39:35.565Z,13.53
2023-03-05T18:42:22.690Z,14.78
2023-03-05T18:45:13.063Z,20.65
2023-03-05T18:48:00.507Z,20.10
2023-03-05T18:50:49.649Z,15.28
2023-03-05T18:53:37.322Z,12.00
2023-03-05T18:56:25.425Z,12.63
2023-03-05T18:59:12.708Z,14.30
2023-03-05T19:01:59.699Z,10.58
2023-03-05T19:04:46.889Z,11.18
2023-03-05T19:07:35.088Z,12.20
2023-03-05T19:10:23.653Z,12.18
2023-03-05T19:13:33.840Z,11.63
2023-03-05T19:16:23.875Z,13.18
2023-03-05T19:19:25.578Z,10.58
2023-03-05T19:22:13.114Z,11.53
2023-03-05T19:25:01.717Z,12.98
2023-03-05T19:27:48.672Z,10.65
2023-03-05T19:30:35.898Z,12.35
2023-03-05T19:33:25.067Z,11.08
2023-03-05T19:36:13.267Z,12.15
2023-03-05T19:39:00.312Z,11.33
2023-03-05T19:41:47.543Z,12.88
2023-03-05T19:44:35.071Z,14.90
2023-03-05T19:47:24.103Z,10.20
2023-03-05T19:50:13.172Z,11.43
2023-03-05T19:53:00.358Z,11.88
2023-03-05T19:55:47.355Z,9.63
2023-03-05T19:58:35.938Z,12.25
2023-03-05T20:01:25.934Z,13.95
2023-03-05T20:04:16.224Z,11.20
2023-03-05T20:07:05.207Z,12.65
2023-03-05T20:09:53.922Z,10.08
2023-03-05T20:12:41.243Z,9.63
2023-03-05T20:15:29.231Z,11.00
2023-03-05T20:18:16.281Z,11.28
2023-03-05T20:21:03.487Z,9.30
2023-03-05T20:23:55.015Z,10.82
2023-03-05T20:26:43.193Z,8.05
2023-03-05T20:29:30.660Z,9.18
2023-03-05T20:32:18.074Z,9.78
2023-03-05T20:35:05.651Z,10.93
2023-03-05T20:37:57.052Z,8.30
2023-03-05T20:40:44.221Z,7.05
2023-03-05T20:43:34.375Z,8.80
2023-03-05T20:46:24.517Z,8.53
2023-03-05T20:49:11.750Z,12.93
2023-03-05T20:51:59.009Z,10.93
2023-03-05T20:54:47.737Z,10.15
2023-03-05T20:57:35.630Z,10.05
2023-03-05T21:00:22.944Z,11.28
2023-03-05T21:03:10.239Z,10.40
2023-03-05T21:05:57.495Z,12.23
2023-03-05T21:08:44.804Z,9.48
2023-03-05T21:11:32.192Z,9.83
2023-03-05T21:14:19.437Z,13.60
2023-03-05T21:17:06.528Z,10.40
2023-03-05T21:19:53.721Z,13.22
2023-03-05T21:22:41.032Z,11.85
2023-03-05T21:25:30.384Z,10.20
2023-03-05T21:28:18.689Z,11.53
2023-03-05T21:31:11.674Z,13.60
2023-03-05T21:33:58.708Z,10.70
2023-03-05T21:36:45.881Z,15.88
2023-03-05T21:39:33.048Z,12.28
2023-03-05T21:42:20.289Z,11.83
2023-03-05T21:45:09.213Z,14.38
2023-03-05T21:47:58.537Z,13.72
2023-03-05T21:50:46.880Z,14.25
2023-03-05T21:53:33.840Z,14.45
2023-03-05T21:56:23.565Z,14.23
2023-03-05T21:59:10.874Z,11.68
2023-03-05T22:01:58.045Z,15.98
2023-03-05T22:04:46.095Z,18.07
2023-03-05T22:07:33.186Z,15.88
2023-03-05T22:10:22.146Z,17.77
2023-03-05T22:13:12.797Z,15.45
2023-03-05T22:15:59.887Z,16.37
2023-03-05T22:18:46.976Z,17.25
2023-03-05T22:21:34.466Z,15.75
2023-03-05T22:24:22.129Z,13.93
2023-03-05T22:27:10.236Z,17.42
2023-03-05T22:29:57.144Z,19.82
2023-03-05T22:32:44.559Z,16.20
2023-03-05T22:35:31.770Z,15.72
2023-03-05T22:38:19.018Z,13.13
2023-03-05T22:41:10.945Z,19.17
2023-03-05T22:43:58.461Z,17.90
2023-03-05T22:46:45.574Z,15.63
2023-03-05T22:49:33.709Z,14.78
2023-03-05T22:52:21.180Z,12.63
2023-03-05T22:55:08.878Z,14.63
2023-03-05T22:57:55.854Z,17.42
2023-03-05T23:00:43.308Z,18.00
2023-03-05T23:03:30.570Z,14.90
2023-03-05T23:06:17.428Z,16.37
2023-03-05T23:09:04.487Z,17.42
2023-03-05T23:11:51.751Z,16.52
2023-03-05T23:14:39.099Z,16.20
2023-03-05T23:17:26.512Z,14.38
2023-03-05T23:20:16.944Z,14.23
2023-03-05T23:23:04.563Z,16.07
2023-03-05T23:25:52.583Z,14.07
2023-03-05T23:28:39.783Z,13.45
2023-03-05T23:31:27.170Z,14.25
2023-03-05T23:34:14.769Z,12.28
2023-03-05T23:37:02.154Z,14.90
2023-03-05T23:39:49.477Z,13.80
2023-03-05T23:42:38.480Z,14.53
2023-03-05T23:45:26.809Z,15.08
2023-03-05T23:48:13.796Z,14.63
2023-03-05T23:51:00.775Z,15.63
2023-03-05T23:53:48.761Z,16.15
2023-03-05T23:56:36.031Z,13.53
2023-03-05T23:59:23.516Z,15.03
